Time;durP1;ratioP1;P1;durP2;ratioP2;P2;SDS_P1;SDS_P2;PMS_P1;PMS_P2;Temp;Humidity;BMP_temperature;BMP_pressure;BME280_temperature;BME280_humidity;BME280_pressure;Samples;Min_cycle;Max_cycle;Signal;HPM_P1;HPM_P2
2021/05/08 00:00:30;;;;;;;11.13;9.60;;;;;;;7.28;59.72;100560.91;5075167;28;20467;-69
2021/05/08 00:02:56;;;;;;;9.10;8.20;;;;;;;7.15;59.91;100555.63;5080115;28;20491;-71
2021/05/08 00:05:23;;;;;;;10.23;9.20;;;;;;;7.13;60.05;100557.56;5081862;28;20513;-71
2021/05/08 00:07:49;;;;;;;11.27;8.60;;;;;;;6.94;60.65;100557.16;5082525;28;20476;-70
2021/05/08 00:10:16;;;;;;;11.07;9.00;;;;;;;7.00;60.31;100555.91;5080592;28;20487;-70
2021/05/08 00:12:43;;;;;;;13.00;9.60;;;;;;;6.88;60.91;100557.63;5082188;28;20496;-69
2021/05/08 00:15:10;;;;;;;9.43;8.53;;;;;;;6.96;60.65;100557.91;5071424;28;20491;-71
2021/05/08 00:17:37;;;;;;;10.53;8.90;;;;;;;6.95;60.59;100559.72;5082053;28;20445;-66
2021/05/08 00:20:05;;;;;;;10.67;9.40;;;;;;;6.97;60.54;100562.25;5072270;28;20713;-67
2021/05/08 00:22:32;;;;;;;11.83;9.10;;;;;;;6.97;60.63;100562.25;5062598;28;20989;-68
2021/05/08 00:24:58;;;;;;;10.03;8.40;;;;;;;6.96;60.64;100565.88;5068475;28;20511;-67
2021/05/08 00:27:24;;;;;;;12.30;9.37;;;;;;;6.95;60.05;100561.53;5081739;28;20510;-68
2021/05/08 00:29:50;;;;;;;10.17;8.77;;;;;;;6.93;60.15;100563.47;5071237;28;20437;-67
2021/05/08 00:32:16;;;;;;;10.20;9.20;;;;;;;6.91;60.48;100560.91;5061790;28;21001;-68
2021/05/08 00:34:42;;;;;;;19.23;10.50;;;;;;;6.92;60.21;100554.59;5070892;28;20486;-67
2021/05/08 00:37:09;;;;;;;10.80;9.70;;;;;;;6.84;60.30;100551.69;5081045;28;20476;-68
2021/05/08 00:39:36;;;;;;;11.60;9.53;;;;;;;6.87;60.46;100559.41;5061807;28;20457;-68
2021/05/08 00:42:02;;;;;;;11.07;9.33;;;;;;;6.86;60.54;100557.72;5062580;28;20487;-67
2021/05/08 00:44:28;;;;;;;11.10;10.10;;;;;;;6.82;60.86;100556.22;5061941;28;20484;-66
2021/05/08 00:46:55;;;;;;;12.03;9.73;;;;;;;6.71;60.87;100554.34;5074617;28;20475;-68
2021/05/08 00:49:22;;;;;;;9.50;8.03;;;;;;;6.77;60.50;100559.22;5082107;28;20505;-68
2021/05/08 00:51:48;;;;;;;12.83;8.90;;;;;;;6.78;60.32;100558.25;5068165;28;20519;-66
2021/05/08 00:54:14;;;;;;;12.60;8.27;;;;;;;6.69;60.34;100556.25;5061831;28;20445;-67
2021/05/08 00:56:42;;;;;;;9.07;7.20;;;;;;;6.58;60.42;100550.88;5080572;28;20482;-67
2021/05/08 00:59:08;;;;;;;8.20;7.40;;;;;;;6.48;60.83;100557.78;5082384;28;20456;-68
2021/05/08 01:01:34;;;;;;;8.87;8.00;;;;;;;6.57;60.53;100551.81;5062604;28;20515;-66
2021/05/08 01:04:00;;;;;;;9.87;7.70;;;;;;;6.45;60.81;100561.47;5078810;28;20511;-67
2021/05/08 01:06:26;;;;;;;8.90;8.00;;;;;;;6.51;60.46;100550.44;5081179;28;20499;-68
2021/05/08 01:08:53;;;;;;;10.00;9.00;;;;;;;6.26;61.25;100556.56;5077326;28;20440;-66
2021/05/08 01:11:19;;;;;;;10.67;8.90;;;;;;;6.17;61.63;100552.75;5069506;28;20617;-67
2021/05/08 01:13:46;;;;;;;10.90;9.57;;;;;;;6.22;61.68;100547.97;5081605;28;20534;-66
2021/05/08 01:16:12;;;;;;;10.23;9.10;;;;;;;6.26;61.64;100553.94;5065998;28;20989;-69
2021/05/08 01:18:38;;;;;;;9.93;8.83;;;;;;;6.25;61.56;100552.25;5062297;28;20483;-68
2021/05/08 01:21:10;;;;;;;11.83;9.33;;;;;;;6.25;61.22;100554.03;5064562;28;20491;-67
2021/05/08 01:23:36;;;;;;;11.07;9.80;;;;;;;6.38;60.96;100560.19;5061319;28;21091;-67
2021/05/08 01:26:02;;;;;;;11.13;9.60;;;;;;;6.35;61.01;100550.66;5068733;28;20500;-68
2021/05/08 01:28:28;;;;;;;10.50;9.33;;;;;;;6.28;61.23;100549.34;5064299;28;20472;-67
2021/05/08 01:30:54;;;;;;;14.43;10.17;;;;;;;6.21;61.60;100545.41;5071021;28;20476;-68
2021/05/08 01:33:20;;;;;;;10.77;9.63;;;;;;;6.29;61.44;100542.25;5072267;28;20925;-68
2021/05/08 01:35:46;;;;;;;10.37;9.03;;;;;;;6.25;61.52;100552.25;5069583;28;21115;-67
2021/05/08 01:38:13;;;;;;;11.93;9.80;;;;;;;6.27;61.01;100554.75;5063071;28;20453;-67
2021/05/08 01:40:41;;;;;;;12.23;9.50;;;;;;;6.18;61.22;100542.97;5063253;28;20563;-67
2021/05/08 01:43:07;;;;;;;9.67;8.67;;;;;;;6.21;61.43;100541.00;5080928;28;20511;-67
2021/05/08 01:45:33;;;;;;;10.87;9.43;;;;;;;6.27;61.39;100537.06;5079280;28;20570;-67
2021/05/08 01:48:02;;;;;;;9.77;8.53;;;;;;;6.20;61.26;100549.91;5079633;28;20448;-67
2021/05/08 01:50:28;;;;;;;14.83;9.80;;;;;;;6.16;61.34;100550.19;5078842;28;20988;-68
2021/05/08 01:52:54;;;;;;;11.33;10.23;;;;;;;6.14;61.59;100546.81;5069884;28;20467;-67
2021/05/08 01:55:23;;;;;;;14.97;10.00;;;;;;;6.29;60.87;100552.88;5077394;28;20464;-68
2021/05/08 01:57:51;;;;;;;12.27;10.40;;;;;;;6.16;61.17;100548.41;5061864;28;20425;-68
2021/05/08 02:00:19;;;;;;;15.10;10.30;;;;;;;6.15;61.42;100535.25;5061096;28;20969;-68
2021/05/08 02:02:46;;;;;;;11.30;10.10;;;;;;;6.16;61.37;100539.56;5078630;28;20500;-67
2021/05/08 02:05:12;;;;;;;11.10;9.63;;;;;;;6.10;61.37;100540.84;5069641;28;20509;-68
2021/05/08 02:07:38;;;;;;;11.93;10.50;;;;;;;6.10;61.24;100543.50;5081473;28;20453;-68
2021/05/08 02:10:06;;;;;;;13.67;10.33;;;;;;;5.98;61.77;100537.22;5078401;28;20451;-66
2021/05/08 02:12:34;;;;;;;15.60;11.87;;;;;;;6.09;61.61;100540.97;5081015;28;20463;-68
2021/05/08 02:15:00;;;;;;;11.30;10.20;;;;;;;6.07;61.56;100540.22;5078628;28;20448;-67
2021/05/08 02:17:26;;;;;;;12.40;11.00;;;;;;;6.03;61.40;100540.41;5065169;28;20496;-67
2021/05/08 02:19:52;;;;;;;13.10;11.20;;;;;;;6.02;61.36;100544.03;5077613;28;20520;-66
2021/05/08 02:22:19;;;;;;;16.23;12.37;;;;;;;5.96;62.01;100547.09;5060685;28;20555;-67
2021/05/08 02:24:45;;;;;;;13.77;12.07;;;;;;;5.87;62.69;100541.53;5080480;28;20487;-68
2021/05/08 02:27:11;;;;;;;13.17;11.80;;;;;;;5.89;62.52;100537.81;5080645;28;20507;-68
2021/05/08 02:29:38;;;;;;;13.00;11.60;;;;;;;5.88;62.38;100533.47;5062974;28;20477;-67
2021/05/08 02:32:05;;;;;;;15.00;12.40;;;;;;;5.94;62.29;100534.88;5061148;28;20574;-67
2021/05/08 02:34:32;;;;;;;16.10;12.60;;;;;;;5.90;62.01;100528.91;5077171;28;20487;-68
2021/05/08 02:36:58;;;;;;;11.43;10.27;;;;;;;5.83;61.86;100530.25;5069526;28;20481;-68
2021/05/08 02:39:24;;;;;;;10.07;8.80;;;;;;;5.75;61.64;100527.31;5061585;28;20472;-67
2021/05/08 02:41:50;;;;;;;11.13;9.93;;;;;;;5.66;61.81;100532.25;5074358;28;20570;-67
2021/05/08 02:44:16;;;;;;;11.80;10.70;;;;;;;5.58;62.01;100526.59;5068499;28;20487;-67
2021/05/08 02:46:43;;;;;;;12.87;10.43;;;;;;;5.71;61.59;100526.66;5072545;28;20476;-67
2021/05/08 02:49:09;;;;;;;10.67;9.13;;;;;;;5.51;61.82;100516.50;5065604;28;20453;-68
2021/05/08 02:51:36;;;;;;;10.63;9.57;;;;;;;5.41;62.25;100527.72;5063522;28;20508;-68
2021/05/08 02:54:02;;;;;;;12.30;10.53;;;;;;;5.21;62.87;100523.72;5082546;28;20476;-66
2021/05/08 02:56:28;;;;;;;12.60;10.90;;;;;;;5.28;62.57;100525.03;5079752;28;20511;-68
2021/05/08 02:58:54;;;;;;;12.73;10.57;;;;;;;5.26;62.56;100524.28;5064335;28;20456;-67
2021/05/08 03:01:20;;;;;;;12.47;10.37;;;;;;;5.28;62.54;100518.88;5072144;28;20479;-66
2021/05/08 03:03:47;;;;;;;11.70;10.50;;;;;;;5.31;62.43;100523.97;5074559;28;20480;-67
2021/05/08 03:06:13;;;;;;;10.20;9.20;;;;;;;5.11;62.95;100519.13;5071223;28;20856;-66
2021/05/08 03:08:39;;;;;;;11.17;9.93;;;;;;;5.14;63.23;100518.91;5068446;28;20465;-65
2021/05/08 03:11:06;;;;;;;10.67;9.60;;;;;;;5.15;63.22;100520.63;5062047;28;21005;-67
2021/05/08 03:13:32;;;;;;;13.93;10.10;;;;;;;5.30;62.54;100524.94;5070891;28;20508;-67
2021/05/08 03:15:58;;;;;;;11.70;9.60;;;;;;;5.21;62.48;100510.47;5073666;28;20509;-66
2021/05/08 03:18:24;;;;;;;11.27;9.67;;;;;;;5.15;63.44;100513.50;5080659;28;20440;-66
2021/05/08 03:20:51;;;;;;;10.50;9.40;;;;;;;5.04;64.12;100514.19;5070693;28;20504;-65
2021/05/08 03:23:17;;;;;;;11.47;9.37;;;;;;;5.09;63.40;100516.56;5064299;28;20567;-67
2021/05/08 03:25:43;;;;;;;11.30;10.10;;;;;;;5.00;63.34;100520.66;5062980;28;20483;-66
2021/05/08 03:28:09;;;;;;;13.10;10.60;;;;;;;5.22;62.73;100514.81;5066741;28;20432;-67
2021/05/08 03:30:35;;;;;;;12.10;10.03;;;;;;;5.13;63.01;100518.06;5081242;28;20558;-66
2021/05/08 03:33:01;;;;;;;10.90;9.80;;;;;;;5.14;63.01;100519.78;5079079;28;20472;-67
2021/05/08 03:35:28;;;;;;;12.17;10.53;;;;;;;5.16;63.11;100515.22;5083092;28;20522;-67
2021/05/08 03:37:55;;;;;;;15.80;12.07;;;;;;;4.93;64.47;100519.34;5082094;28;20456;-67
2021/05/08 03:40:21;;;;;;;10.87;9.77;;;;;;;5.08;63.95;100514.84;5066805;28;20461;-67
2021/05/08 03:42:47;;;;;;;12.03;10.07;;;;;;;5.13;63.06;100515.41;5063820;28;20858;-66
2021/05/08 03:45:14;;;;;;;10.83;9.73;;;;;;;5.12;63.18;100519.03;5082322;28;20455;-67
2021/05/08 03:47:40;;;;;;;12.03;10.17;;;;;;;5.01;64.25;100518.84;5082604;28;20449;-67
2021/05/08 03:50:07;;;;;;;11.40;10.20;;;;;;;5.00;64.18;100519.78;5080785;28;20880;-68
2021/05/08 03:52:33;;;;;;;13.03;11.60;;;;;;;5.21;64.30;100518.41;5067992;28;20491;-67
2021/05/08 03:55:01;;;;;;;11.63;10.43;;;;;;;5.45;63.04;100520.41;5062729;28;20497;-67
2021/05/08 03:57:27;;;;;;;14.30;10.90;;;;;;;5.93;61.63;100517.25;5079311;28;20502;-68
2021/05/08 03:59:53;;;;;;;12.17;10.97;;;;;;;6.43;60.12;100517.41;5065594;28;20441;-67
2021/05/08 04:02:19;;;;;;;12.80;11.50;;;;;;;6.66;58.56;100526.41;5078117;28;20557;-67
2021/05/08 04:04:45;;;;;;;13.83;11.30;;;;;;;7.24;57.43;100524.00;5080321;28;20479;-67
2021/05/08 04:07:11;;;;;;;13.80;9.80;;;;;;;7.82;55.70;100514.34;5066774;28;20476;-68
2021/05/08 04:09:38;;;;;;;10.20;9.20;;;;;;;8.25;53.54;100510.22;5062670;28;20460;-68
2021/05/08 04:12:06;;;;;;;12.67;9.03;;;;;;;8.37;52.83;100508.41;5062406;28;20567;-67
2021/05/08 04:14:32;;;;;;;11.40;7.90;;;;;;;8.92;51.78;100506.69;5074889;28;20479;-68
2021/05/08 04:16:58;;;;;;;9.17;7.50;;;;;;;8.93;51.16;100511.06;5069068;28;20519;-67
2021/05/08 04:19:25;;;;;;;8.80;6.90;;;;;;;9.90;48.30;100505.75;5076966;28;20953;-68
2021/05/08 04:21:51;;;;;;;7.40;6.70;;;;;;;10.65;46.62;100517.16;5062576;28;20504;-67
2021/05/08 04:24:17;;;;;;;7.90;7.10;;;;;;;11.38;44.92;100519.59;5062479;28;20504;-67
2021/05/08 04:26:43;;;;;;;7.67;6.97;;;;;;;12.08;43.68;100516.78;5063109;28;21028;-68
2021/05/08 04:29:10;;;;;;;10.33;7.70;;;;;;;12.94;41.65;100519.31;5062861;28;20447;-67
2021/05/08 04:31:36;;;;;;;8.70;7.13;;;;;;;13.12;40.92;100515.81;5068731;28;20876;-68
2021/05/08 04:34:02;;;;;;;7.87;7.17;;;;;;;12.59;41.95;100514.69;5062410;28;20437;-69
2021/05/08 04:36:28;;;;;;;7.40;6.67;;;;;;;13.52;40.39;100520.81;5070233;28;20503;-68
2021/05/08 04:38:55;;;;;;;7.53;6.90;;;;;;;13.83;39.50;100519.56;5076723;28;20483;-67
2021/05/08 04:41:21;;;;;;;6.73;6.13;;;;;;;14.10;38.87;100516.75;5061028;28;20501;-68
2021/05/08 04:43:47;;;;;;;7.70;6.83;;;;;;;14.87;37.83;100516.88;5068306;28;20592;-68
2021/05/08 04:46:14;;;;;;;9.23;7.30;;;;;;;15.59;36.24;100519.09;5061491;28;20575;-68
2021/05/08 04:48:40;;;;;;;7.63;6.93;;;;;;;15.73;35.29;100511.38;5076450;28;20443;-69
2021/05/08 04:51:06;;;;;;;8.57;7.87;;;;;;;15.85;34.97;100523.53;5080501;28;20498;-69
2021/05/08 04:53:33;;;;;;;8.93;8.10;;;;;;;14.05;37.96;100521.75;5074170;28;20505;-68
2021/05/08 04:55:59;;;;;;;9.60;8.60;;;;;;;12.21;42.33;100521.84;5079414;28;20690;-68
2021/05/08 04:58:25;;;;;;;9.90;8.90;;;;;;;13.44;40.51;100514.53;5078845;28;20472;-70
2021/05/08 05:00:51;;;;;;;11.43;10.10;;;;;;;14.10;38.81;100518.63;5077703;28;20483;-70
2021/05/08 05:03:18;;;;;;;10.70;9.63;;;;;;;15.76;36.21;100528.09;5081135;28;20495;-69
2021/05/08 05:05:45;;;;;;;31.40;19.07;;;;;;;16.54;34.34;100525.78;5076424;28;20484;-68
2021/05/08 05:08:12;;;;;;;11.80;10.60;;;;;;;17.54;32.57;100532.47;5079039;28;20448;-67
2021/05/08 05:10:38;;;;;;;10.67;9.77;;;;;;;18.28;31.65;100521.06;5075430;28;20499;-68
2021/05/08 05:13:04;;;;;;;17.50;12.60;;;;;;;18.78;30.42;100523.06;5081256;28;20463;-69
2021/05/08 05:15:31;;;;;;;10.13;9.23;;;;;;;20.08;28.32;100528.66;5080073;28;20475;-68
2021/05/08 05:17:57;;;;;;;9.50;8.60;;;;;;;20.31;27.63;100533.84;5076763;28;20484;-68
2021/05/08 05:20:24;;;;;;;9.40;8.50;;;;;;;20.52;27.59;100527.53;5076100;28;20464;-69
2021/05/08 05:22:51;;;;;;;10.20;8.63;;;;;;;21.12;27.55;100529.75;5069186;28;20912;-69
2021/05/08 05:25:17;;;;;;;10.93;9.93;;;;;;;21.15;26.90;100529.34;5066924;28;20467;-67
2021/05/08 05:27:43;;;;;;;9.83;9.00;;;;;;;21.59;25.76;100528.88;5077305;28;20440;-67
2021/05/08 05:30:10;;;;;;;9.27;8.37;;;;;;;21.13;26.24;100520.56;5061029;28;20448;-67
2021/05/08 05:32:36;;;;;;;17.57;15.90;;;;;;;20.90;26.85;100529.03;5079644;28;20957;-69
2021/05/08 05:35:02;;;;;;;10.60;9.70;;;;;;;21.48;26.62;100521.31;5080632;28;20539;-69
2021/05/08 05:37:29;;;;;;;10.00;9.10;;;;;;;21.98;25.45;100524.53;5079751;28;20487;-69
2021/05/08 05:39:55;;;;;;;11.47;10.37;;;;;;;22.26;25.00;100523.47;5068152;28;20525;-69
2021/05/08 05:42:21;;;;;;;10.20;9.30;;;;;;;21.48;25.50;100517.78;5081050;28;20495;-69
2021/05/08 05:44:47;;;;;;;11.70;10.60;;;;;;;21.54;25.72;100519.66;5088309;28;20551;-69
2021/05/08 05:47:22;;;;;;;12.07;10.97;;;;;;;22.40;24.65;100520.78;5073221;28;20508;-67
2021/05/08 05:49:49;;;;;;;13.40;11.03;;;;;;;22.46;24.82;100520.72;5076748;28;20930;-69
2021/05/08 05:52:15;;;;;;;10.70;9.70;;;;;;;23.70;22.93;100523.41;5085986;28;20516;-67
2021/05/08 05:54:47;;;;;;;11.43;10.23;;;;;;;23.59;23.11;100519.47;5083804;28;20476;-68
2021/05/08 05:57:13;;;;;;;11.60;10.50;;;;;;;22.49;24.54;100520.31;5066497;28;20484;-68
2021/05/08 05:59:39;;;;;;;11.57;10.47;;;;;;;21.99;25.15;100522.63;5061260;28;20460;-68
2021/05/08 06:02:06;;;;;;;11.27;10.30;;;;;;;20.80;26.96;100527.53;5072412;28;20483;-69
2021/05/08 06:04:32;;;;;;;11.30;10.30;;;;;;;21.66;26.13;100515.28;5085017;28;20518;-68
2021/05/08 06:06:58;;;;;;;12.17;11.07;;;;;;;22.66;25.26;100522.59;5072517;28;21037;-67
2021/05/08 06:09:26;;;;;;;11.53;10.43;;;;;;;22.00;25.67;100524.31;5098048;28;20451;-68
2021/05/08 06:11:53;;;;;;;11.50;10.57;;;;;;;22.96;24.68;100525.63;5086445;28;20518;-68
2021/05/08 06:14:20;;;;;;;10.97;10.07;;;;;;;22.46;25.16;100518.00;5081543;28;20455;-68
2021/05/08 06:16:46;;;;;;;10.70;9.80;;;;;;;22.52;25.37;100529.97;5077526;28;20515;-66
2021/05/08 06:19:12;;;;;;;10.63;9.67;;;;;;;22.36;25.95;100521.19;5081529;28;20487;-68
2021/05/08 06:21:39;;;;;;;11.60;9.47;;;;;;;22.80;25.63;100520.66;5082529;28;20913;-68
2021/05/08 06:24:06;;;;;;;10.80;9.87;;;;;;;22.87;25.23;100521.47;5080049;28;20980;-68
2021/05/08 06:26:32;;;;;;;10.40;9.40;;;;;;;23.56;24.35;100519.91;5074321;28;20480;-67
2021/05/08 06:28:59;;;;;;;12.13;10.40;;;;;;;22.89;24.58;100519.38;5077814;28;20490;-69
2021/05/08 06:31:25;;;;;;;11.67;10.70;;;;;;;20.55;28.36;100513.53;5084401;28;20560;-68
2021/05/08 06:33:51;;;;;;;11.47;10.50;;;;;;;20.63;28.51;100518.84;5090051;28;20450;-67
2021/05/08 06:36:17;;;;;;;11.63;10.57;;;;;;;22.81;25.80;100519.59;5076682;28;20528;-68
2021/05/08 06:38:44;;;;;;;11.83;10.73;;;;;;;23.07;25.52;100525.00;5077866;28;20514;-68
2021/05/08 06:41:10;;;;;;;13.43;12.03;;;;;;;18.22;32.05;100519.94;5085604;28;20496;-69
2021/05/08 06:43:36;;;;;;;13.50;12.20;;;;;;;16.33;35.20;100510.16;5095690;28;20522;-69
2021/05/08 06:46:03;;;;;;;13.53;11.67;;;;;;;15.87;37.10;100521.50;5074618;28;20540;-70
2021/05/08 06:48:29;;;;;;;14.23;11.30;;;;;;;15.73;36.01;100517.59;5075244;28;20530;-68
2021/05/08 06:50:55;;;;;;;12.40;11.07;;;;;;;15.84;37.34;100524.53;5069900;28;20730;-68
2021/05/08 06:53:21;;;;;;;13.10;11.80;;;;;;;18.70;32.70;100514.19;5081209;28;20469;-67
2021/05/08 06:55:47;;;;;;;13.23;11.83;;;;;;;20.11;29.91;100522.84;5073107;28;20495;-69
2021/05/08 06:58:13;;;;;;;12.53;11.37;;;;;;;19.85;29.34;100520.75;5082207;28;20491;-71
2021/05/08 07:00:40;;;;;;;12.40;11.10;;;;;;;19.35;29.55;100517.94;5075579;28;20482;-70
2021/05/08 07:03:07;;;;;;;11.73;10.63;;;;;;;22.06;26.38;100514.47;5077530;28;20480;-70
2021/05/08 07:05:34;;;;;;;13.40;10.83;;;;;;;23.23;24.75;100512.75;5071925;28;20495;-69
2021/05/08 07:08:01;;;;;;;11.50;10.30;;;;;;;20.16;27.22;100514.97;5072097;28;20491;-69
2021/05/08 07:10:27;;;;;;;10.93;9.93;;;;;;;22.24;25.85;100516.53;5075441;28;20476;-71
2021/05/08 07:12:53;;;;;;;11.47;10.37;;;;;;;23.67;24.14;100515.63;5069710;28;20474;-70
2021/05/08 07:15:19;;;;;;;14.27;10.37;;;;;;;24.08;22.95;100513.47;5082656;28;20491;-69
2021/05/08 07:17:45;;;;;;;14.50;10.73;;;;;;;22.87;24.47;100514.13;5083970;28;20504;-70
2021/05/08 07:20:13;;;;;;;13.03;10.60;;;;;;;19.12;27.61;100507.25;5082060;28;20479;-69
2021/05/08 07:22:40;;;;;;;12.03;10.07;;;;;;;21.34;25.30;100503.28;5068655;28;20483;-69
2021/05/08 07:25:07;;;;;;;11.60;9.67;;;;;;;22.84;24.07;100502.81;5078646;28;20496;-69
2021/05/08 07:27:33;;;;;;;10.30;9.23;;;;;;;23.26;21.95;100506.88;5055087;28;20449;-68
2021/05/08 07:29:59;;;;;;;11.00;8.03;;;;;;;22.48;22.09;100499.59;5052820;28;20477;-70
2021/05/08 07:32:25;;;;;;;10.03;7.57;;;;;;;23.84;20.66;100503.16;5047026;28;20549;-69
2021/05/08 07:34:52;;;;;;;8.67;7.00;;;;;;;20.15;23.40;100505.13;5062334;28;20897;-70
2021/05/08 07:37:20;;;;;;;8.67;6.80;;;;;;;20.22;23.92;100497.88;5062656;28;20590;-68
2021/05/08 07:39:46;;;;;;;10.80;7.50;;;;;;;18.15;25.88;100500.03;5062471;28;20551;-68
2021/05/08 07:42:12;;;;;;;8.00;7.20;;;;;;;17.95;26.52;100497.00;5061519;28;20508;-69
2021/05/08 07:44:38;;;;;;;7.93;5.43;;;;;;;17.43;25.39;100487.75;5062718;28;20488;-69
2021/05/08 07:47:05;;;;;;;6.53;5.27;;;;;;;16.53;26.73;100489.03;5078387;28;20515;-70
2021/05/08 07:49:31;;;;;;;7.77;5.33;;;;;;;18.95;23.42;100479.53;5083157;28;20590;-70
2021/05/08 07:51:57;;;;;;;6.90;5.60;;;;;;;19.58;22.90;100474.34;5079630;28;20999;-69
2021/05/08 07:54:24;;;;;;;7.60;5.07;;;;;;;22.21;20.29;100476.97;5080024;28;20451;-71
2021/05/08 07:56:50;;;;;;;6.67;4.90;;;;;;;22.51;20.25;100476.50;5079224;28;20483;-69
2021/05/08 07:59:16;;;;;;;6.27;4.77;;;;;;;21.53;20.91;100471.75;5080608;28;20957;-70
2021/05/08 08:01:43;;;;;;;7.17;5.30;;;;;;;20.20;22.27;100471.97;5077783;28;20547;-68
2021/05/08 08:04:09;;;;;;;8.93;7.00;;;;;;;18.19;24.49;100468.88;5083894;28;21029;-68
2021/05/08 08:06:35;;;;;;;8.33;6.67;;;;;;;18.82;23.53;100469.38;5101617;28;20559;-68
2021/05/08 08:09:02;;;;;;;7.63;6.50;;;;;;;20.78;22.10;100458.97;5097431;28;20443;-69
2021/05/08 08:11:30;;;;;;;8.77;7.20;;;;;;;19.56;23.38;100466.44;5067217;28;20485;-70
2021/05/08 08:13:56;;;;;;;8.90;7.37;;;;;;;18.33;25.19;100445.56;5069459;28;20802;-69
2021/05/08 08:16:22;;;;;;;10.87;9.70;;;;;;;18.29;24.27;100446.97;5069043;28;20556;-68
2021/05/08 08:18:49;;;;;;;10.17;7.93;;;;;;;18.77;23.46;100455.53;5081294;28;20976;-68
2021/05/08 08:21:15;;;;;;;14.60;10.10;;;;;;;20.10;22.37;100456.88;5073525;28;20516;-69
2021/05/08 08:23:41;;;;;;;11.40;8.40;;;;;;;22.03;21.17;100450.41;5062216;28;20500;-71
2021/05/08 08:26:07;;;;;;;11.17;7.97;;;;;;;20.38;23.47;100460.59;5059607;28;20483;-70
2021/05/08 08:28:34;;;;;;;10.47;8.17;;;;;;;19.96;20.93;100443.41;5062240;28;20425;-70
2021/05/08 08:31:01;;;;;;;9.90;7.93;;;;;;;19.24;22.13;100447.97;5066412;28;20922;-70
2021/05/08 08:33:27;;;;;;;10.07;7.07;;;;;;;18.89;22.18;100445.91;5080817;28;20507;-68
2021/05/08 08:35:54;;;;;;;7.87;5.60;;;;;;;19.46;21.08;100454.22;5080209;28;20475;-69
2021/05/08 08:38:20;;;;;;;8.90;7.07;;;;;;;19.07;22.73;100450.91;5082007;28;20441;-68
2021/05/08 08:40:47;;;;;;;11.40;7.53;;;;;;;18.96;22.66;100451.41;5075754;28;20512;-69
2021/05/08 08:43:13;;;;;;;11.90;7.43;;;;;;;18.78;22.67;100452.63;5060405;28;20472;-69
2021/05/08 08:45:40;;;;;;;9.30;6.90;;;;;;;18.25;23.20;100447.31;5060155;28;20484;-70
2021/05/08 08:48:07;;;;;;;12.03;7.90;;;;;;;18.39;22.30;100445.66;5074930;28;20471;-69
2021/05/08 08:50:36;;;;;;;8.53;6.67;;;;;;;20.60;20.41;100443.16;5080388;28;20491;-69
2021/05/08 08:53:02;;;;;;;10.10;7.00;;;;;;;20.54;21.05;100437.72;5080832;28;20452;-69
2021/05/08 08:55:29;;;;;;;8.47;7.20;;;;;;;19.28;22.34;100444.66;5079207;28;20488;-71
2021/05/08 08:57:56;;;;;;;10.20;7.43;;;;;;;19.61;22.73;100437.88;5081715;28;20480;-70
2021/05/08 09:00:22;;;;;;;11.10;7.97;;;;;;;19.22;22.59;100431.03;5080551;28;20540;-70
2021/05/08 09:02:51;;;;;;;9.63;7.90;;;;;;;19.34;22.83;100434.94;5060201;28;20436;-67
2021/05/08 09:05:19;;;;;;;10.83;9.07;;;;;;;20.04;22.13;100432.41;5060127;28;20480;-70
2021/05/08 09:07:47;;;;;;;11.47;8.17;;;;;;;19.89;23.95;100435.22;5061428;28;20444;-68
2021/05/08 09:10:23;;;;;;;12.87;9.00;;;;;;;18.79;23.52;100427.22;5058449;28;20476;-69
2021/05/08 09:12:50;;;;;;;9.97;6.97;;;;;;;18.09;25.05;100427.72;5061270;28;20468;-67
2021/05/08 09:15:28;;;;;;;13.67;8.07;;;;;;;18.55;26.89;100424.81;5060234;28;20460;-67
2021/05/08 09:17:56;;;;;;;11.40;8.10;;;;;;;18.59;25.00;100420.69;5060055;28;20468;-69
2021/05/08 09:20:22;;;;;;;11.47;8.80;;;;;;;18.92;24.74;100404.91;5057682;28;20512;-69
2021/05/08 09:22:50;;;;;;;10.33;8.60;;;;;;;17.91;25.76;100399.16;5060275;28;20451;-70
2021/05/08 09:25:17;;;;;;;10.83;7.83;;;;;;;17.37;27.54;100410.94;5059024;28;20441;-69
2021/05/08 09:27:46;;;;;;;11.37;8.90;;;;;;;17.16;27.94;100408.06;5061130;28;20457;-70
2021/05/08 09:30:31;;;;;;;11.00;9.50;;;;;;;17.34;27.47;100407.75;5059159;28;20463;-68
2021/05/08 09:32:59;;;;;;;10.73;8.00;;;;;;;17.78;26.01;100402.47;5060302;28;20486;-68
2021/05/08 09:35:27;;;;;;;9.57;7.00;;;;;;;17.33;27.04;100404.22;5060000;28;20469;-69
2021/05/08 09:38:06;;;;;;;11.70;8.00;;;;;;;18.11;26.39;100393.22;5060677;28;20441;-70
2021/05/08 09:40:33;;;;;;;12.60;8.47;;;;;;;18.18;26.72;100389.56;5043786;28;20536;-69
2021/05/08 09:42:59;;;;;;;10.30;8.80;;;;;;;18.64;26.81;100393.91;5040860;28;20458;-70
2021/05/08 09:45:26;;;;;;;11.50;8.00;;;;;;;17.99;26.67;100387.44;5040425;28;20500;-68
2021/05/08 09:47:53;;;;;;;10.37;8.00;;;;;;;18.65;26.94;100387.47;5047562;28;20477;-70
2021/05/08 09:50:21;;;;;;;10.47;8.30;;;;;;;17.71;26.82;100379.91;5039890;28;20464;-70
2021/05/08 09:52:50;;;;;;;8.57;7.23;;;;;;;18.35;27.40;100375.81;5040858;28;20449;-70
2021/05/08 09:55:18;;;;;;;10.03;8.83;;;;;;;17.65;27.15;100376.09;5045924;28;20544;-69
2021/05/08 09:58:01;;;;;;;8.07;6.00;;;;;;;18.29;26.51;100369.31;5084218;28;20577;-68
2021/05/08 10:00:35;;;;;;;8.47;7.50;;;;;;;18.23;26.62;100365.50;5081848;28;20516;-68
2021/05/08 10:03:12;;;;;;;7.80;6.40;;;;;;;18.06;26.20;100355.88;5084554;28;20466;-69
2021/05/08 10:05:41;;;;;;;10.23;6.50;;;;;;;18.16;27.39;100371.84;5081161;28;20471;-67
2021/05/08 10:08:07;;;;;;;7.20;5.90;;;;;;;17.55;26.62;100359.28;5063486;28;20440;-72
2021/05/08 10:10:34;;;;;;;7.53;5.93;;;;;;;17.43;27.17;100352.59;5062694;28;20468;-69
2021/05/08 10:13:06;;;;;;;6.20;5.33;;;;;;;17.13;26.88;100347.13;5064590;28;20760;-70
2021/05/08 10:15:32;;;;;;;5.17;4.67;;;;;;;16.94;27.58;100343.91;5063566;28;20551;-70
2021/05/08 10:17:59;;;;;;;4.87;4.27;;;;;;;16.53;26.74;100343.28;5084427;28;20479;-71
2021/05/08 10:20:25;;;;;;;5.77;4.90;;;;;;;17.98;26.12;100340.56;5082893;28;20459;-69
2021/05/08 10:22:57;;;;;;;6.90;5.53;;;;;;;17.29;27.44;100341.59;5083294;28;20428;-68
2021/05/08 10:25:24;;;;;;;9.03;5.90;;;;;;;17.57;27.14;100343.72;5082711;28;20455;-68
2021/05/08 10:27:50;;;;;;;8.53;5.70;;;;;;;17.22;26.35;100327.16;5064072;28;20460;-69
2021/05/08 10:30:18;;;;;;;5.00;4.30;;;;;;;17.02;27.45;100315.16;5062053;28;20483;-70
2021/05/08 10:32:45;;;;;;;7.30;4.27;;;;;;;18.17;27.40;100325.63;5084130;28;20444;-68
2021/05/08 10:35:13;;;;;;;4.50;4.10;;;;;;;17.52;26.07;100302.88;5082577;28;20452;-69
2021/05/08 10:37:40;;;;;;;7.20;5.17;;;;;;;18.63;26.17;100319.94;5064388;28;20467;-68
2021/05/08 10:40:18;;;;;;;12.87;5.97;;;;;;;18.87;25.04;100309.81;5062095;28;20928;-70
2021/05/08 10:42:46;;;;;;;6.87;5.33;;;;;;;17.88;26.38;100291.38;5064057;28;20431;-68
2021/05/08 10:45:32;;;;;;;6.17;5.40;;;;;;;16.30;28.11;100298.22;5061816;28;20520;-67
2021/05/08 10:48:09;;;;;;;6.60;5.90;;;;;;;17.24;30.02;100299.94;5076809;28;20516;-69
2021/05/08 10:50:38;;;;;;;9.37;5.33;;;;;;;17.25;28.69;100288.94;5083198;28;20471;-69
2021/05/08 10:53:08;;;;;;;7.50;5.70;;;;;;;17.43;27.46;100294.00;5082757;28;20442;-69
2021/05/08 10:55:50;;;;;;;5.57;4.97;;;;;;;17.75;27.39;100289.25;5081623;28;20468;-70
2021/05/08 10:58:33;;;;;;;5.07;3.83;;;;;;;18.35;26.95;100283.78;5083146;28;20918;-68
2021/05/08 11:01:01;;;;;;;4.47;3.63;;;;;;;17.76;26.24;100281.97;5081623;28;20475;-69
2021/05/08 11:03:29;;;;;;;5.73;4.17;;;;;;;18.67;26.28;100279.78;5082842;28;20969;-69
2021/05/08 11:05:56;;;;;;;5.43;3.40;;;;;;;18.29;25.07;100276.47;5077455;28;20508;-68
2021/05/08 11:08:47;;;;;;;5.10;3.50;;;;;;;18.88;23.81;100276.25;5062179;28;20479;-66
2021/05/08 11:11:19;;;;;;;3.93;3.23;;;;;;;18.87;24.02;100276.44;5062230;28;21059;-67
2021/05/08 11:13:48;;;;;;;4.80;3.10;;;;;;;17.62;25.48;100275.53;5063311;28;20421;-70
2021/05/08 11:16:16;;;;;;;4.73;2.87;;;;;;;19.52;25.12;100263.63;5067857;28;20487;-70
2021/05/08 11:18:44;;;;;;;3.83;2.77;;;;;;;19.75;22.41;100264.22;5082613;28;20432;-70